sensor_id;sensor_type;location;lat;lon;timestamp;P1;durP1;ratioP1;P2;durP2;ratioP2
21152;SDS011;10734;44.792;20.482;2024-01-15T00:01:22;23.83;;;11.35;;
21152;SDS011;10734;44.792;20.482;2024-01-15T00:03:48;23.65;;;11.95;;
21152;SDS011;10734;44.792;20.482;2024-01-15T00:06:15;23.38;;;11.50;;
21152;SDS011;10734;44.792;20.482;2024-01-15T00:08:42;29.45;;;12.77;;
21152;SDS011;10734;44.792;20.482;2024-01-15T00:14:00;26.45;;;12.48;;
21152;SDS011;10734;44.792;20.482;2024-01-15T00:16:26;24.80;;;11.25;;
21152;SDS011;10734;44.792;20.482;2024-01-15T00:18:53;24.98;;;10.82;;
21152;SDS011;10734;44.792;20.482;2024-01-15T00:21:20;21.80;;;11.20;;
21152;SDS011;10734;44.792;20.482;2024-01-15T00:23:46;22.58;;;11.88;;
21152;SDS011;10734;44.792;20.482;2024-01-15T00:29:44;22.20;;;8.33;;
21152;SDS011;10734;44.792;20.482;2024-01-15T00:32:11;23.70;;;10.15;;
21152;SDS011;10734;44.792;20.482;2024-01-15T00:34:38;19.30;;;10.57;;
21152;SDS011;10734;44.792;20.482;2024-01-15T00:37:04;27.02;;;12.07;;
21152;SDS011;10734;44.792;20.482;2024-01-15T00:39:33;24.45;;;10.95;;
21152;SDS011;10734;44.792;20.482;2024-01-15T00:42:00;26.48;;;12.23;;
21152;SDS011;10734;44.792;20.482;2024-01-15T00:44:26;28.92;;;11.70;;
21152;SDS011;10734;44.792;20.482;2024-01-15T00:46:53;23.70;;;10.70;;
21152;SDS011;10734;44.792;20.482;2024-01-15T00:49:19;26.58;;;12.68;;
21152;SDS011;10734;44.792;20.482;2024-01-15T00:51:47;52.50;;;25.58;;
21152;SDS011;10734;44.792;20.482;2024-01-15T00:54:13;33.40;;;13.60;;
21152;SDS011;10734;44.792;20.482;2024-01-15T00:56:40;32.67;;;15.30;;
21152;SDS011;10734;44.792;20.482;2024-01-15T00:59:06;28.98;;;12.93;;
21152;SDS011;10734;44.792;20.482;2024-01-15T01:01:34;22.98;;;11.68;;
21152;SDS011;10734;44.792;20.482;2024-01-15T01:04:00;24.30;;;11.60;;
21152;SDS011;10734;44.792;20.482;2024-01-15T01:06:27;23.55;;;10.90;;
21152;SDS011;10734;44.792;20.482;2024-01-15T01:08:57;27.10;;;12.63;;
21152;SDS011;10734;44.792;20.482;2024-01-15T01:11:24;22.30;;;11.30;;
21152;SDS011;10734;44.792;20.482;2024-01-15T01:13:50;28.08;;;12.85;;
21152;SDS011;10734;44.792;20.482;2024-01-15T01:16:17;21.08;;;10.15;;
21152;SDS011;10734;44.792;20.482;2024-01-15T01:18:44;28.08;;;11.23;;
21152;SDS011;10734;44.792;20.482;2024-01-15T01:21:10;27.20;;;13.30;;
21152;SDS011;10734;44.792;20.482;2024-01-15T01:23:37;25.00;;;12.02;;
21152;SDS011;10734;44.792;20.482;2024-01-15T01:26:04;29.23;;;13.15;;
21152;SDS011;10734;44.792;20.482;2024-01-15T01:28:31;23.45;;;11.20;;
21152;SDS011;10734;44.792;20.482;2024-01-15T01:30:57;23.48;;;10.60;;
21152;SDS011;10734;44.792;20.482;2024-01-15T01:33:24;23.10;;;10.32;;
21152;SDS011;10734;44.792;20.482;2024-01-15T01:35:50;19.77;;;9.90;;
21152;SDS011;10734;44.792;20.482;2024-01-15T01:38:17;26.08;;;9.98;;
21152;SDS011;10734;44.792;20.482;2024-01-15T01:40:44;26.48;;;10.63;;
21152;SDS011;10734;44.792;20.482;2024-01-15T01:43:11;24.70;;;10.18;;
21152;SDS011;10734;44.792;20.482;2024-01-15T01:45:38;25.65;;;10.50;;
21152;SDS011;10734;44.792;20.482;2024-01-15T01:48:05;19.65;;;8.85;;
21152;SDS011;10734;44.792;20.482;2024-01-15T01:50:32;21.33;;;8.95;;
21152;SDS011;10734;44.792;20.482;2024-01-15T01:52:59;18.65;;;8.20;;
21152;SDS011;10734;44.792;20.482;2024-01-15T01:55:26;17.60;;;7.80;;
21152;SDS011;10734;44.792;20.482;2024-01-15T01:57:54;16.73;;;7.90;;
21152;SDS011;10734;44.792;20.482;2024-01-15T02:00:21;18.33;;;8.43;;
21152;SDS011;10734;44.792;20.482;2024-01-15T02:02:49;17.50;;;9.20;;
21152;SDS011;10734;44.792;20.482;2024-01-15T02:05:18;20.10;;;9.45;;
21152;SDS011;10734;44.792;20.482;2024-01-15T02:07:44;22.17;;;9.50;;
21152;SDS011;10734;44.792;20.482;2024-01-15T02:10:11;19.33;;;9.02;;
21152;SDS011;10734;44.792;20.482;2024-01-15T02:12:38;20.05;;;7.90;;
21152;SDS011;10734;44.792;20.482;2024-01-15T02:15:05;18.10;;;8.95;;
21152;SDS011;10734;44.792;20.482;2024-01-15T02:17:31;15.90;;;7.15;;
21152;SDS011;10734;44.792;20.482;2024-01-15T02:19:58;13.40;;;6.85;;
21152;SDS011;10734;44.792;20.482;2024-01-15T02:22:25;17.45;;;7.80;;
21152;SDS011;10734;44.792;20.482;2024-01-15T02:24:52;15.82;;;7.53;;
21152;SDS011;10734;44.792;20.482;2024-01-15T02:27:18;31.55;;;13.98;;
21152;SDS011;10734;44.792;20.482;2024-01-15T02:29:45;16.40;;;7.68;;
21152;SDS011;10734;44.792;20.482;2024-01-15T02:32:12;13.70;;;6.95;;
21152;SDS011;10734;44.792;20.482;2024-01-15T02:34:39;16.27;;;7.45;;
21152;SDS011;10734;44.792;20.482;2024-01-15T02:37:06;12.95;;;6.28;;
21152;SDS011;10734;44.792;20.482;2024-01-15T02:39:32;15.68;;;7.75;;
21152;SDS011;10734;44.792;20.482;2024-01-15T02:42:00;14.15;;;6.65;;
21152;SDS011;10734;44.792;20.482;2024-01-15T02:44:26;11.93;;;6.32;;
21152;SDS011;10734;44.792;20.482;2024-01-15T02:46:53;12.10;;;6.43;;
21152;SDS011;10734;44.792;20.482;2024-01-15T02:49:19;10.43;;;5.97;;
21152;SDS011;10734;44.792;20.482;2024-01-15T02:51:46;10.30;;;6.40;;
21152;SDS011;10734;44.792;20.482;2024-01-15T02:54:13;10.55;;;5.53;;
21152;SDS011;10734;44.792;20.482;2024-01-15T02:56:40;13.15;;;5.90;;
21152;SDS011;10734;44.792;20.482;2024-01-15T02:59:06;15.73;;;6.53;;
21152;SDS011;10734;44.792;20.482;2024-01-15T03:01:33;13.73;;;6.95;;
21152;SDS011;10734;44.792;20.482;2024-01-15T03:04:00;13.05;;;6.70;;
21152;SDS011;10734;44.792;20.482;2024-01-15T03:06:26;14.50;;;9.07;;
21152;SDS011;10734;44.792;20.482;2024-01-15T03:08:53;18.20;;;10.23;;
21152;SDS011;10734;44.792;20.482;2024-01-15T03:11:20;26.77;;;17.13;;
21152;SDS011;10734;44.792;20.482;2024-01-15T03:13:46;25.08;;;13.85;;
21152;SDS011;10734;44.792;20.482;2024-01-15T03:16:13;23.23;;;13.05;;
21152;SDS011;10734;44.792;20.482;2024-01-15T03:18:39;45.63;;;23.85;;
21152;SDS011;10734;44.792;20.482;2024-01-15T03:21:06;23.65;;;11.77;;
21152;SDS011;10734;44.792;20.482;2024-01-15T03:23:33;20.45;;;11.68;;
21152;SDS011;10734;44.792;20.482;2024-01-15T03:29:04;48.47;;;22.13;;
21152;SDS011;10734;44.792;20.482;2024-01-15T03:31:31;54.83;;;25.55;;
21152;SDS011;10734;44.792;20.482;2024-01-15T03:33:58;43.97;;;21.25;;
21152;SDS011;10734;44.792;20.482;2024-01-15T03:36:25;30.73;;;16.20;;
21152;SDS011;10734;44.792;20.482;2024-01-15T03:38:51;45.78;;;22.13;;
21152;SDS011;10734;44.792;20.482;2024-01-15T03:41:18;78.88;;;36.03;;
21152;SDS011;10734;44.792;20.482;2024-01-15T03:43:44;82.35;;;40.00;;
21152;SDS011;10734;44.792;20.482;2024-01-15T03:46:11;57.38;;;28.08;;
21152;SDS011;10734;44.792;20.482;2024-01-15T03:48:39;67.72;;;32.85;;
21152;SDS011;10734;44.792;20.482;2024-01-15T03:51:05;84.78;;;38.25;;
21152;SDS011;10734;44.792;20.482;2024-01-15T03:53:32;65.60;;;30.98;;
21152;SDS011;10734;44.792;20.482;2024-01-15T03:55:59;41.88;;;19.27;;
21152;SDS011;10734;44.792;20.482;2024-01-15T03:58:25;34.05;;;14.50;;
21152;SDS011;10734;44.792;20.482;2024-01-15T04:00:52;17.52;;;7.75;;
21152;SDS011;10734;44.792;20.482;2024-01-15T04:03:19;13.88;;;5.72;;
21152;SDS011;10734;44.792;20.482;2024-01-15T04:05:46;9.05;;;4.28;;
21152;SDS011;10734;44.792;20.482;2024-01-15T04:08:13;9.48;;;4.35;;
21152;SDS011;10734;44.792;20.482;2024-01-15T04:10:39;7.35;;;3.67;;
21152;SDS011;10734;44.792;20.482;2024-01-15T04:13:06;10.80;;;4.72;;
21152;SDS011;10734;44.792;20.482;2024-01-15T04:15:32;7.30;;;4.35;;
21152;SDS011;10734;44.792;20.482;2024-01-15T04:18:01;12.82;;;6.85;;
21152;SDS011;10734;44.792;20.482;2024-01-15T04:20:28;21.60;;;11.20;;
21152;SDS011;10734;44.792;20.482;2024-01-15T04:22:55;35.30;;;18.23;;
21152;SDS011;10734;44.792;20.482;2024-01-15T04:25:22;16.25;;;8.05;;
21152;SDS011;10734;44.792;20.482;2024-01-15T04:27:48;57.50;;;23.48;;
21152;SDS011;10734;44.792;20.482;2024-01-15T04:30:15;23.08;;;10.27;;
21152;SDS011;10734;44.792;20.482;2024-01-15T04:32:42;57.35;;;21.95;;
21152;SDS011;10734;44.792;20.482;2024-01-15T04:35:08;28.95;;;10.80;;
21152;SDS011;10734;44.792;20.482;2024-01-15T04:37:35;9.63;;;4.55;;
21152;SDS011;10734;44.792;20.482;2024-01-15T04:40:02;10.88;;;5.28;;
21152;SDS011;10734;44.792;20.482;2024-01-15T04:42:30;12.07;;;5.30;;
21152;SDS011;10734;44.792;20.482;2024-01-15T04:44:57;10.00;;;5.38;;
21152;SDS011;10734;44.792;20.482;2024-01-15T04:47:24;16.52;;;7.03;;
21152;SDS011;10734;44.792;20.482;2024-01-15T04:49:50;15.80;;;6.30;;
21152;SDS011;10734;44.792;20.482;2024-01-15T04:52:17;14.25;;;7.20;;
21152;SDS011;10734;44.792;20.482;2024-01-15T04:54:44;17.02;;;8.90;;
21152;SDS011;10734;44.792;20.482;2024-01-15T05:00:02;17.00;;;7.70;;
21152;SDS011;10734;44.792;20.482;2024-01-15T05:02:29;24.05;;;11.73;;
21152;SDS011;10734;44.792;20.482;2024-01-15T05:04:56;25.88;;;10.77;;
21152;SDS011;10734;44.792;20.482;2024-01-15T05:07:23;23.77;;;9.63;;
21152;SDS011;10734;44.792;20.482;2024-01-15T05:09:49;19.88;;;10.32;;
21152;SDS011;10734;44.792;20.482;2024-01-15T05:12:16;17.58;;;8.52;;
21152;SDS011;10734;44.792;20.482;2024-01-15T05:14:42;22.85;;;11.85;;
21152;SDS011;10734;44.792;20.482;2024-01-15T05:17:09;20.48;;;9.32;;
21152;SDS011;10734;44.792;20.482;2024-01-15T05:19:36;21.13;;;9.93;;
21152;SDS011;10734;44.792;20.482;2024-01-15T05:22:03;31.50;;;15.75;;
21152;SDS011;10734;44.792;20.482;2024-01-15T05:24:30;23.50;;;12.27;;
21152;SDS011;10734;44.792;20.482;2024-01-15T05:26:57;17.08;;;9.93;;
21152;SDS011;10734;44.792;20.482;2024-01-15T05:29:23;20.85;;;10.10;;
21152;SDS011;10734;44.792;20.482;2024-01-15T05:31:50;25.00;;;11.18;;
21152;SDS011;10734;44.792;20.482;2024-01-15T05:34:16;21.60;;;12.07;;
21152;SDS011;10734;44.792;20.482;2024-01-15T05:36:43;30.52;;;15.45;;
21152;SDS011;10734;44.792;20.482;2024-01-15T05:39:10;26.55;;;12.80;;
21152;SDS011;10734;44.792;20.482;2024-01-15T05:41:37;23.13;;;11.10;;
21152;SDS011;10734;44.792;20.482;2024-01-15T05:44:04;37.17;;;18.98;;
21152;SDS011;10734;44.792;20.482;2024-01-15T05:46:30;33.25;;;16.30;;
21152;SDS011;10734;44.792;20.482;2024-01-15T05:48:57;26.40;;;14.25;;
21152;SDS011;10734;44.792;20.482;2024-01-15T05:51:24;34.17;;;15.30;;
21152;SDS011;10734;44.792;20.482;2024-01-15T05:53:50;30.90;;;15.07;;
21152;SDS011;10734;44.792;20.482;2024-01-15T05:56:18;22.85;;;11.85;;
21152;SDS011;10734;44.792;20.482;2024-01-15T05:58:44;20.30;;;10.50;;
21152;SDS011;10734;44.792;20.482;2024-01-15T06:01:11;21.73;;;11.20;;
21152;SDS011;10734;44.792;20.482;2024-01-15T06:03:37;18.85;;;8.93;;
21152;SDS011;10734;44.792;20.482;2024-01-15T06:06:04;18.30;;;8.85;;
21152;SDS011;10734;44.792;20.482;2024-01-15T06:08:31;19.63;;;9.60;;
21152;SDS011;10734;44.792;20.482;2024-01-15T06:10:58;17.13;;;8.02;;
21152;SDS011;10734;44.792;20.482;2024-01-15T06:13:27;12.98;;;6.82;;
21152;SDS011;10734;44.792;20.482;2024-01-15T06:15:54;14.02;;;7.30;;
21152;SDS011;10734;44.792;20.482;2024-01-15T06:18:20;13.35;;;6.68;;
21152;SDS011;10734;44.792;20.482;2024-01-15T06:20:47;20.13;;;8.82;;
21152;SDS011;10734;44.792;20.482;2024-01-15T06:23:14;19.83;;;9.05;;
21152;SDS011;10734;44.792;20.482;2024-01-15T06:25:43;15.85;;;7.90;;
21152;SDS011;10734;44.792;20.482;2024-01-15T06:28:10;25.13;;;10.73;;
21152;SDS011;10734;44.792;20.482;2024-01-15T06:30:36;37.42;;;17.50;;
21152;SDS011;10734;44.792;20.482;2024-01-15T06:33:03;34.28;;;15.40;;
21152;SDS011;10734;44.792;20.482;2024-01-15T06:35:30;28.20;;;13.10;;
21152;SDS011;10734;44.792;20.482;2024-01-15T06:37:57;24.50;;;13.05;;
21152;SDS011;10734;44.792;20.482;2024-01-15T06:40:23;33.83;;;14.10;;
21152;SDS011;10734;44.792;20.482;2024-01-15T06:42:50;30.00;;;14.52;;
21152;SDS011;10734;44.792;20.482;2024-01-15T06:45:17;30.00;;;13.60;;
21152;SDS011;10734;44.792;20.482;2024-01-15T06:47:43;27.25;;;12.88;;
21152;SDS011;10734;44.792;20.482;2024-01-15T06:50:10;33.55;;;14.35;;
21152;SDS011;10734;44.792;20.482;2024-01-15T06:52:36;30.13;;;12.68;;
21152;SDS011;10734;44.792;20.482;2024-01-15T06:55:03;23.77;;;11.82;;
21152;SDS011;10734;44.792;20.482;2024-01-15T06:57:30;29.17;;;11.88;;
21152;SDS011;10734;44.792;20.482;2024-01-15T06:59:57;26.40;;;12.73;;
21152;SDS011;10734;44.792;20.482;2024-01-15T07:02:24;28.95;;;13.20;;
21152;SDS011;10734;44.792;20.482;2024-01-15T07:04:51;27.50;;;13.27;;
21152;SDS011;10734;44.792;20.482;2024-01-15T07:07:17;26.50;;;12.07;;
21152;SDS011;10734;44.792;20.482;2024-01-15T07:09:44;31.80;;;13.05;;
21152;SDS011;10734;44.792;20.482;2024-01-15T07:12:11;26.10;;;12.68;;
21152;SDS011;10734;44.792;20.482;2024-01-15T07:14:38;32.65;;;14.52;;
21152;SDS011;10734;44.792;20.482;2024-01-15T07:17:04;31.35;;;15.02;;
21152;SDS011;10734;44.792;20.482;2024-01-15T07:19:31;33.70;;;14.93;;
21152;SDS011;10734;44.792;20.482;2024-01-15T07:21:57;37.15;;;15.32;;
21152;SDS011;10734;44.792;20.482;2024-01-15T07:24:24;34.13;;;16.15;;
21152;SDS011;10734;44.792;20.482;2024-01-15T07:26:51;37.50;;;16.15;;
21152;SDS011;10734;44.792;20.482;2024-01-15T07:29:17;36.42;;;15.23;;
21152;SDS011;10734;44.792;20.482;2024-01-15T07:31:48;33.53;;;14.30;;
21152;SDS011;10734;44.792;20.482;2024-01-15T07:34:15;35.05;;;14.13;;
21152;SDS011;10734;44.792;20.482;2024-01-15T07:36:46;37.78;;;15.48;;
21152;SDS011;10734;44.792;20.482;2024-01-15T07:39:12;40.03;;;16.25;;
21152;SDS011;10734;44.792;20.482;2024-01-15T07:41:49;36.78;;;15.93;;
21152;SDS011;10734;44.792;20.482;2024-01-15T07:44:16;33.05;;;15.48;;
21152;SDS011;10734;44.792;20.482;2024-01-15T07:46:46;31.50;;;15.52;;
21152;SDS011;10734;44.792;20.482;2024-01-15T07:49:13;39.13;;;15.48;;
21152;SDS011;10734;44.792;20.482;2024-01-15T07:51:40;33.22;;;15.82;;
21152;SDS011;10734;44.792;20.482;2024-01-15T07:54:06;35.28;;;13.85;;
21152;SDS011;10734;44.792;20.482;2024-01-15T07:56:33;35.75;;;15.82;;
21152;SDS011;10734;44.792;20.482;2024-01-15T07:59:00;39.38;;;17.23;;
21152;SDS011;10734;44.792;20.482;2024-01-15T08:01:27;33.05;;;16.08;;
21152;SDS011;10734;44.792;20.482;2024-01-15T08:03:54;37.55;;;17.75;;
21152;SDS011;10734;44.792;20.482;2024-01-15T08:06:21;39.47;;;18.70;;
21152;SDS011;10734;44.792;20.482;2024-01-15T08:08:48;38.75;;;19.02;;
21152;SDS011;10734;44.792;20.482;2024-01-15T08:11:15;42.15;;;19.55;;
21152;SDS011;10734;44.792;20.482;2024-01-15T08:13:42;41.92;;;19.65;;
21152;SDS011;10734;44.792;20.482;2024-01-15T08:16:08;41.20;;;18.50;;
21152;SDS011;10734;44.792;20.482;2024-01-15T08:18:35;29.35;;;16.00;;
21152;SDS011;10734;44.792;20.482;2024-01-15T08:21:02;33.60;;;16.80;;
21152;SDS011;10734;44.792;20.482;2024-01-15T08:23:29;29.58;;;14.57;;
21152;SDS011;10734;44.792;20.482;2024-01-15T08:25:57;28.88;;;15.07;;
21152;SDS011;10734;44.792;20.482;2024-01-15T08:28:24;79.93;;;44.08;;
21152;SDS011;10734;44.792;20.482;2024-01-15T08:30:51;36.15;;;19.80;;
21152;SDS011;10734;44.792;20.482;2024-01-15T08:33:17;27.70;;;14.95;;
21152;SDS011;10734;44.792;20.482;2024-01-15T08:35:47;26.63;;;13.27;;
21152;SDS011;10734;44.792;20.482;2024-01-15T08:38:14;25.67;;;12.52;;
21152;SDS011;10734;44.792;20.482;2024-01-15T08:40:41;23.45;;;11.95;;
21152;SDS011;10734;44.792;20.482;2024-01-15T08:43:07;22.23;;;11.02;;
21152;SDS011;10734;44.792;20.482;2024-01-15T08:45:34;24.10;;;12.88;;
21152;SDS011;10734;44.792;20.482;2024-01-15T08:48:00;24.00;;;12.65;;
21152;SDS011;10734;44.792;20.482;2024-01-15T08:50:27;30.00;;;15.70;;
21152;SDS011;10734;44.792;20.482;2024-01-15T08:52:54;28.13;;;14.30;;
21152;SDS011;10734;44.792;20.482;2024-01-15T08:55:21;33.72;;;16.52;;
21152;SDS011;10734;44.792;20.482;2024-01-15T08:57:48;36.25;;;17.92;;
21152;SDS011;10734;44.792;20.482;2024-01-15T09:00:15;42.58;;;19.85;;
21152;SDS011;10734;44.792;20.482;2024-01-15T09:02:42;41.90;;;19.88;;
21152;SDS011;10734;44.792;20.482;2024-01-15T09:05:09;39.08;;;19.73;;
21152;SDS011;10734;44.792;20.482;2024-01-15T09:07:36;38.80;;;19.27;;
21152;SDS011;10734;44.792;20.482;2024-01-15T09:10:02;37.97;;;19.15;;
21152;SDS011;10734;44.792;20.482;2024-01-15T09:12:29;39.28;;;20.10;;
21152;SDS011;10734;44.792;20.482;2024-01-15T09:14:56;39.75;;;20.05;;
21152;SDS011;10734;44.792;20.482;2024-01-15T09:17:22;40.60;;;19.38;;
21152;SDS011;10734;44.792;20.482;2024-01-15T09:19:50;33.70;;;18.77;;
21152;SDS011;10734;44.792;20.482;2024-01-15T09:22:16;42.58;;;21.63;;
21152;SDS011;10734;44.792;20.482;2024-01-15T09:24:46;46.63;;;23.83;;
21152;SDS011;10734;44.792;20.482;2024-01-15T09:27:13;42.55;;;22.40;;
21152;SDS011;10734;44.792;20.482;2024-01-15T09:29:40;54.55;;;26.65;;
21152;SDS011;10734;44.792;20.482;2024-01-15T09:32:08;56.45;;;31.05;;
21152;SDS011;10734;44.792;20.482;2024-01-15T09:34:35;52.17;;;28.88;;
21152;SDS011;10734;44.792;20.482;2024-01-15T09:37:02;50.97;;;27.88;;
21152;SDS011;10734;44.792;20.482;2024-01-15T09:39:29;48.75;;;27.63;;
21152;SDS011;10734;44.792;20.482;2024-01-15T09:41:57;53.85;;;28.88;;
21152;SDS011;10734;44.792;20.482;2024-01-15T09:44:24;45.97;;;25.52;;
21152;SDS011;10734;44.792;20.482;2024-01-15T09:46:52;51.58;;;24.27;;
21152;SDS011;10734;44.792;20.482;2024-01-15T09:49:20;47.97;;;25.08;;
21152;SDS011;10734;44.792;20.482;2024-01-15T09:51:47;46.92;;;21.42;;
21152;SDS011;10734;44.792;20.482;2024-01-15T09:54:28;34.13;;;17.53;;
21152;SDS011;10734;44.792;20.482;2024-01-15T09:56:54;38.47;;;20.98;;
21152;SDS011;10734;44.792;20.482;2024-01-15T09:59:22;40.80;;;22.40;;
21152;SDS011;10734;44.792;20.482;2024-01-15T10:01:49;44.30;;;22.02;;
21152;SDS011;10734;44.792;20.482;2024-01-15T10:04:16;48.83;;;25.95;;
21152;SDS011;10734;44.792;20.482;2024-01-15T10:06:44;50.78;;;24.92;;
21152;SDS011;10734;44.792;20.482;2024-01-15T10:09:12;51.95;;;27.00;;
21152;SDS011;10734;44.792;20.482;2024-01-15T10:11:41;53.55;;;26.85;;
21152;SDS011;10734;44.792;20.482;2024-01-15T10:14:11;42.92;;;24.08;;
21152;SDS011;10734;44.792;20.482;2024-01-15T10:16:41;45.25;;;24.10;;
21152;SDS011;10734;44.792;20.482;2024-01-15T10:19:08;41.15;;;22.10;;
21152;SDS011;10734;44.792;20.482;2024-01-15T10:21:35;42.92;;;25.13;;
21152;SDS011;10734;44.792;20.482;2024-01-15T10:24:03;45.55;;;24.75;;
21152;SDS011;10734;44.792;20.482;2024-01-15T10:26:30;42.65;;;23.35;;
21152;SDS011;10734;44.792;20.482;2024-01-15T10:29:00;41.20;;;22.23;;
21152;SDS011;10734;44.792;20.482;2024-01-15T10:31:27;44.28;;;24.23;;
21152;SDS011;10734;44.792;20.482;2024-01-15T10:34:09;46.20;;;25.33;;
21152;SDS011;10734;44.792;20.482;2024-01-15T10:36:36;38.65;;;21.40;;
21152;SDS011;10734;44.792;20.482;2024-01-15T10:39:06;49.33;;;25.67;;
21152;SDS011;10734;44.792;20.482;2024-01-15T10:41:32;47.92;;;24.73;;
21152;SDS011;10734;44.792;20.482;2024-01-15T10:43:59;42.63;;;23.98;;
21152;SDS011;10734;44.792;20.482;2024-01-15T10:46:26;46.60;;;24.58;;
21152;SDS011;10734;44.792;20.482;2024-01-15T10:48:52;41.80;;;23.50;;
21152;SDS011;10734;44.792;20.482;2024-01-15T10:51:20;45.88;;;24.65;;
21152;SDS011;10734;44.792;20.482;2024-01-15T10:53:47;39.25;;;21.00;;
21152;SDS011;10734;44.792;20.482;2024-01-15T10:56:14;37.70;;;20.42;;
21152;SDS011;10734;44.792;20.482;2024-01-15T10:58:40;44.38;;;24.45;;
21152;SDS011;10734;44.792;20.482;2024-01-15T11:01:08;36.55;;;22.33;;
21152;SDS011;10734;44.792;20.482;2024-01-15T11:03:35;33.28;;;18.73;;
21152;SDS011;10734;44.792;20.482;2024-01-15T11:06:04;36.58;;;19.75;;
21152;SDS011;10734;44.792;20.482;2024-01-15T11:08:42;36.28;;;21.23;;
21152;SDS011;10734;44.792;20.482;2024-01-15T11:11:09;35.03;;;21.85;;
21152;SDS011;10734;44.792;20.482;2024-01-15T11:16:05;44.20;;;26.10;;
21152;SDS011;10734;44.792;20.482;2024-01-15T11:18:37;45.30;;;27.35;;
21152;SDS011;10734;44.792;20.482;2024-01-15T11:23:43;46.17;;;24.92;;
21152;SDS011;10734;44.792;20.482;2024-01-15T11:28:55;48.30;;;26.58;;
21152;SDS011;10734;44.792;20.482;2024-01-15T11:34:08;34.33;;;19.77;;
21152;SDS011;10734;44.792;20.482;2024-01-15T11:42:03;41.08;;;21.58;;
21152;SDS011;10734;44.792;20.482;2024-01-15T11:44:30;35.25;;;21.10;;
21152;SDS011;10734;44.792;20.482;2024-01-15T11:49:31;37.42;;;18.05;;
21152;SDS011;10734;44.792;20.482;2024-01-15T11:52:03;55.38;;;20.80;;
21152;SDS011;10734;44.792;20.482;2024-01-15T11:54:32;44.25;;;21.55;;
21152;SDS011;10734;44.792;20.482;2024-01-15T11:57:00;52.10;;;25.67;;
21152;SDS011;10734;44.792;20.482;2024-01-15T11:59:28;45.08;;;22.25;;
21152;SDS011;10734;44.792;20.482;2024-01-15T12:01:55;38.88;;;22.77;;
21152;SDS011;10734;44.792;20.482;2024-01-15T12:04:22;50.25;;;23.30;;
21152;SDS011;10734;44.792;20.482;2024-01-15T12:06:49;40.60;;;21.88;;
21152;SDS011;10734;44.792;20.482;2024-01-15T12:09:18;48.22;;;23.08;;
21152;SDS011;10734;44.792;20.482;2024-01-15T12:11:46;53.88;;;21.50;;
21152;SDS011;10734;44.792;20.482;2024-01-15T12:14:15;42.35;;;20.75;;
21152;SDS011;10734;44.792;20.482;2024-01-15T12:16:42;59.13;;;21.23;;
21152;SDS011;10734;44.792;20.482;2024-01-15T12:19:09;37.20;;;18.50;;
21152;SDS011;10734;44.792;20.482;2024-01-15T12:21:38;40.88;;;18.13;;
21152;SDS011;10734;44.792;20.482;2024-01-15T12:24:07;38.92;;;19.17;;
21152;SDS011;10734;44.792;20.482;2024-01-15T12:26:33;30.55;;;17.10;;
21152;SDS011;10734;44.792;20.482;2024-01-15T12:29:17;35.13;;;17.77;;
21152;SDS011;10734;44.792;20.482;2024-01-15T12:31:46;36.80;;;16.75;;
21152;SDS011;10734;44.792;20.482;2024-01-15T12:34:13;33.90;;;16.27;;
21152;SDS011;10734;44.792;20.482;2024-01-15T12:36:40;31.00;;;16.58;;
21152;SDS011;10734;44.792;20.482;2024-01-15T12:39:11;28.52;;;15.75;;
21152;SDS011;10734;44.792;20.482;2024-01-15T12:41:38;27.47;;;15.37;;
21152;SDS011;10734;44.792;20.482;2024-01-15T12:44:05;31.77;;;16.70;;
21152;SDS011;10734;44.792;20.482;2024-01-15T12:46:31;35.65;;;18.60;;
21152;SDS011;10734;44.792;20.482;2024-01-15T12:48:58;31.63;;;17.63;;
21152;SDS011;10734;44.792;20.482;2024-01-15T12:51:25;32.33;;;16.63;;
21152;SDS011;10734;44.792;20.482;2024-01-15T12:53:53;35.22;;;17.98;;
21152;SDS011;10734;44.792;20.482;2024-01-15T12:56:19;32.50;;;16.85;;
21152;SDS011;10734;44.792;20.482;2024-01-15T12:58:46;28.83;;;15.57;;
21152;SDS011;10734;44.792;20.482;2024-01-15T13:01:13;71.60;;;29.17;;
21152;SDS011;10734;44.792;20.482;2024-01-15T13:03:40;70.40;;;31.10;;
21152;SDS011;10734;44.792;20.482;2024-01-15T13:06:06;60.67;;;27.45;;
21152;SDS011;10734;44.792;20.482;2024-01-15T13:08:33;49.67;;;23.17;;
21152;SDS011;10734;44.792;20.482;2024-01-15T13:11:00;51.22;;;25.25;;
21152;SDS011;10734;44.792;20.482;2024-01-15T13:13:26;175.65;;;67.43;;
21152;SDS011;10734;44.792;20.482;2024-01-15T13:15:53;133.35;;;52.90;;
21152;SDS011;10734;44.792;20.482;2024-01-15T13:18:20;124.85;;;56.72;;
21152;SDS011;10734;44.792;20.482;2024-01-15T13:20:48;132.50;;;59.45;;
21152;SDS011;10734;44.792;20.482;2024-01-15T13:23:15;127.45;;;58.63;;
21152;SDS011;10734;44.792;20.482;2024-01-15T13:25:41;130.80;;;59.05;;
21152;SDS011;10734;44.792;20.482;2024-01-15T13:28:08;127.15;;;55.90;;
21152;SDS011;10734;44.792;20.482;2024-01-15T13:30:35;125.60;;;58.08;;
21152;SDS011;10734;44.792;20.482;2024-01-15T13:33:02;88.18;;;44.47;;
21152;SDS011;10734;44.792;20.482;2024-01-15T13:35:31;96.72;;;46.85;;
21152;SDS011;10734;44.792;20.482;2024-01-15T13:37:58;112.18;;;55.20;;
21152;SDS011;10734;44.792;20.482;2024-01-15T13:40:24;110.53;;;56.10;;
21152;SDS011;10734;44.792;20.482;2024-01-15T13:42:51;103.43;;;50.35;;
21152;SDS011;10734;44.792;20.482;2024-01-15T13:45:19;90.50;;;45.10;;
21152;SDS011;10734;44.792;20.482;2024-01-15T13:47:47;102.25;;;48.83;;
21152;SDS011;10734;44.792;20.482;2024-01-15T13:50:13;93.30;;;48.08;;
21152;SDS011;10734;44.792;20.482;2024-01-15T13:56:58;109.20;;;53.20;;
21152;SDS011;10734;44.792;20.482;2024-01-15T13:59:25;103.15;;;50.22;;
21152;SDS011;10734;44.792;20.482;2024-01-15T14:01:52;110.75;;;56.08;;
21152;SDS011;10734;44.792;20.482;2024-01-15T14:04:18;106.45;;;54.28;;
21152;SDS011;10734;44.792;20.482;2024-01-15T14:06:46;112.20;;;52.67;;
21152;SDS011;10734;44.792;20.482;2024-01-15T14:09:12;96.75;;;47.72;;
21152;SDS011;10734;44.792;20.482;2024-01-15T14:11:40;101.10;;;51.28;;
21152;SDS011;10734;44.792;20.482;2024-01-15T14:14:07;98.72;;;50.15;;
21152;SDS011;10734;44.792;20.482;2024-01-15T14:16:35;108.07;;;52.40;;
21152;SDS011;10734;44.792;20.482;2024-01-15T14:19:02;108.95;;;53.05;;
21152;SDS011;10734;44.792;20.482;2024-01-15T14:21:29;117.07;;;51.97;;
21152;SDS011;10734;44.792;20.482;2024-01-15T14:23:55;112.32;;;54.70;;
21152;SDS011;10734;44.792;20.482;2024-01-15T14:26:22;97.22;;;47.40;;
21152;SDS011;10734;44.792;20.482;2024-01-15T14:28:49;79.97;;;39.90;;
21152;SDS011;10734;44.792;20.482;2024-01-15T14:31:17;73.20;;;38.17;;
21152;SDS011;10734;44.792;20.482;2024-01-15T14:33:44;75.38;;;38.28;;
21152;SDS011;10734;44.792;20.482;2024-01-15T14:36:10;69.20;;;37.00;;
21152;SDS011;10734;44.792;20.482;2024-01-15T14:38:37;75.72;;;37.50;;
21152;SDS011;10734;44.792;20.482;2024-01-15T14:41:04;70.40;;;36.10;;
21152;SDS011;10734;44.792;20.482;2024-01-15T14:43:31;74.22;;;38.25;;
21152;SDS011;10734;44.792;20.482;2024-01-15T14:45:59;70.72;;;38.25;;